sensor_id;sensor_type;location;lat;lon;timestamp;P1;durP1;ratioP1;P2;durP2;ratioP2
4186;SDS011;2107;52.306;10.484;2023-05-08T00:01:29;0.40;;;0.40;;
4186;SDS011;2107;52.306;10.484;2023-05-08T00:03:56;0.30;;;0.30;;
4186;SDS011;2107;52.306;10.484;2023-05-08T00:06:25;0.30;;;0.30;;
4186;SDS011;2107;52.306;10.484;2023-05-08T00:08:52;0.30;;;0.30;;
4186;SDS011;2107;52.306;10.484;2023-05-08T00:11:19;0.37;;;0.37;;
4186;SDS011;2107;52.306;10.484;2023-05-08T00:13:46;0.40;;;0.40;;
4186;SDS011;2107;52.306;10.484;2023-05-08T00:16:13;0.40;;;0.40;;
4186;SDS011;2107;52.306;10.484;2023-05-08T00:18:40;0.40;;;0.40;;
4186;SDS011;2107;52.306;10.484;2023-05-08T00:21:07;0.40;;;0.40;;
4186;SDS011;2107;52.306;10.484;2023-05-08T00:23:35;0.30;;;0.30;;
4186;SDS011;2107;52.306;10.484;2023-05-08T00:26:02;0.40;;;0.40;;
4186;SDS011;2107;52.306;10.484;2023-05-08T00:28:28;0.40;;;0.40;;
4186;SDS011;2107;52.306;10.484;2023-05-08T00:30:58;0.40;;;0.40;;
4186;SDS011;2107;52.306;10.484;2023-05-08T00:33:25;0.30;;;0.30;;
4186;SDS011;2107;52.306;10.484;2023-05-08T00:35:57;0.30;;;0.30;;
4186;SDS011;2107;52.306;10.484;2023-05-08T00:38:24;0.40;;;0.40;;
4186;SDS011;2107;52.306;10.484;2023-05-08T00:40:52;0.30;;;0.30;;
4186;SDS011;2107;52.306;10.484;2023-05-08T00:43:19;0.30;;;0.30;;
4186;SDS011;2107;52.306;10.484;2023-05-08T00:45:50;0.30;;;0.30;;
4186;SDS011;2107;52.306;10.484;2023-05-08T00:48:18;0.30;;;0.30;;
4186;SDS011;2107;52.306;10.484;2023-05-08T00:50:47;0.20;;;0.20;;
4186;SDS011;2107;52.306;10.484;2023-05-08T00:53:14;0.20;;;0.20;;
4186;SDS011;2107;52.306;10.484;2023-05-08T00:55:42;0.20;;;0.20;;
4186;SDS011;2107;52.306;10.484;2023-05-08T00:58:11;0.30;;;0.30;;
4186;SDS011;2107;52.306;10.484;2023-05-08T01:00:39;0.30;;;0.30;;
4186;SDS011;2107;52.306;10.484;2023-05-08T01:03:07;0.20;;;0.20;;
4186;SDS011;2107;52.306;10.484;2023-05-08T01:05:34;0.20;;;0.20;;
4186;SDS011;2107;52.306;10.484;2023-05-08T01:08:01;0.30;;;0.30;;
4186;SDS011;2107;52.306;10.484;2023-05-08T01:10:30;0.30;;;0.30;;
4186;SDS011;2107;52.306;10.484;2023-05-08T01:13:04;0.30;;;0.30;;
4186;SDS011;2107;52.306;10.484;2023-05-08T01:15:40;0.30;;;0.30;;
4186;SDS011;2107;52.306;10.484;2023-05-08T01:18:13;0.20;;;0.20;;
4186;SDS011;2107;52.306;10.484;2023-05-08T01:20:45;0.30;;;0.30;;
4186;SDS011;2107;52.306;10.484;2023-05-08T01:23:23;0.27;;;0.27;;
4186;SDS011;2107;52.306;10.484;2023-05-08T01:26:31;0.30;;;0.30;;
4186;SDS011;2107;52.306;10.484;2023-05-08T01:32:14;0.30;;;0.30;;
4186;SDS011;2107;52.306;10.484;2023-05-08T01:34:47;0.30;;;0.30;;
4186;SDS011;2107;52.306;10.484;2023-05-08T01:37:26;0.20;;;0.20;;
4186;SDS011;2107;52.306;10.484;2023-05-08T01:40:01;0.20;;;0.20;;
4186;SDS011;2107;52.306;10.484;2023-05-08T01:42:37;0.20;;;0.20;;
4186;SDS011;2107;52.306;10.484;2023-05-08T01:45:15;0.20;;;0.20;;
4186;SDS011;2107;52.306;10.484;2023-05-08T01:47:48;0.20;;;0.20;;
4186;SDS011;2107;52.306;10.484;2023-05-08T01:50:24;0.27;;;0.27;;
4186;SDS011;2107;52.306;10.484;2023-05-08T01:53:00;0.20;;;0.20;;
4186;SDS011;2107;52.306;10.484;2023-05-08T01:55:33;0.20;;;0.20;;
4186;SDS011;2107;52.306;10.484;2023-05-08T01:58:03;0.20;;;0.20;;
4186;SDS011;2107;52.306;10.484;2023-05-08T02:00:33;0.20;;;0.20;;
4186;SDS011;2107;52.306;10.484;2023-05-08T02:03:05;0.20;;;0.20;;
4186;SDS011;2107;52.306;10.484;2023-05-08T02:05:35;0.20;;;0.20;;
4186;SDS011;2107;52.306;10.484;2023-05-08T02:08:03;0.20;;;0.20;;
4186;SDS011;2107;52.306;10.484;2023-05-08T02:10:31;0.20;;;0.20;;
4186;SDS011;2107;52.306;10.484;2023-05-08T02:12:58;0.20;;;0.20;;
4186;SDS011;2107;52.306;10.484;2023-05-08T02:15:26;0.20;;;0.20;;
4186;SDS011;2107;52.306;10.484;2023-05-08T02:17:55;0.20;;;0.20;;
4186;SDS011;2107;52.306;10.484;2023-05-08T02:20:25;0.20;;;0.20;;
4186;SDS011;2107;52.306;10.484;2023-05-08T02:22:53;0.20;;;0.20;;
4186;SDS011;2107;52.306;10.484;2023-05-08T02:25:21;0.20;;;0.20;;
4186;SDS011;2107;52.306;10.484;2023-05-08T02:27:50;0.20;;;0.20;;
4186;SDS011;2107;52.306;10.484;2023-05-08T02:30:19;0.20;;;0.20;;
4186;SDS011;2107;52.306;10.484;2023-05-08T02:32:49;0.20;;;0.20;;
4186;SDS011;2107;52.306;10.484;2023-05-08T02:35:17;0.20;;;0.20;;
4186;SDS011;2107;52.306;10.484;2023-05-08T02:37:47;0.20;;;0.20;;
4186;SDS011;2107;52.306;10.484;2023-05-08T02:40:17;0.30;;;0.30;;
4186;SDS011;2107;52.306;10.484;2023-05-08T02:42:45;0.20;;;0.20;;
4186;SDS011;2107;52.306;10.484;2023-05-08T02:45:12;0.20;;;0.20;;
4186;SDS011;2107;52.306;10.484;2023-05-08T02:47:42;0.20;;;0.20;;
4186;SDS011;2107;52.306;10.484;2023-05-08T02:50:14;0.20;;;0.20;;
4186;SDS011;2107;52.306;10.484;2023-05-08T02:52:44;0.20;;;0.20;;
4186;SDS011;2107;52.306;10.484;2023-05-08T02:55:16;0.20;;;0.20;;
4186;SDS011;2107;52.306;10.484;2023-05-08T02:57:56;0.20;;;0.20;;
4186;SDS011;2107;52.306;10.484;2023-05-08T03:00:34;0.20;;;0.20;;
4186;SDS011;2107;52.306;10.484;2023-05-08T03:03:14;0.20;;;0.20;;
4186;SDS011;2107;52.306;10.484;2023-05-08T03:05:48;0.20;;;0.20;;
4186;SDS011;2107;52.306;10.484;2023-05-08T03:08:20;0.20;;;0.20;;
4186;SDS011;2107;52.306;10.484;2023-05-08T03:10:51;0.20;;;0.20;;
4186;SDS011;2107;52.306;10.484;2023-05-08T03:13:21;0.20;;;0.20;;
4186;SDS011;2107;52.306;10.484;2023-05-08T03:15:51;0.20;;;0.20;;
4186;SDS011;2107;52.306;10.484;2023-05-08T03:18:22;0.30;;;0.30;;
4186;SDS011;2107;52.306;10.484;2023-05-08T03:20:51;0.30;;;0.30;;
4186;SDS011;2107;52.306;10.484;2023-05-08T03:23:22;0.20;;;0.20;;
4186;SDS011;2107;52.306;10.484;2023-05-08T03:25:51;0.20;;;0.20;;
4186;SDS011;2107;52.306;10.484;2023-05-08T03:28:18;0.20;;;0.20;;
4186;SDS011;2107;52.306;10.484;2023-05-08T03:30:47;0.20;;;0.20;;
4186;SDS011;2107;52.306;10.484;2023-05-08T03:33:16;0.20;;;0.20;;
4186;SDS011;2107;52.306;10.484;2023-05-08T03:35:43;0.20;;;0.20;;
4186;SDS011;2107;52.306;10.484;2023-05-08T03:38:11;0.20;;;0.20;;
4186;SDS011;2107;52.306;10.484;2023-05-08T03:40:39;0.20;;;0.20;;
4186;SDS011;2107;52.306;10.484;2023-05-08T03:43:07;0.27;;;0.27;;
4186;SDS011;2107;52.306;10.484;2023-05-08T03:45:36;0.20;;;0.20;;
4186;SDS011;2107;52.306;10.484;2023-05-08T03:48:06;0.27;;;0.27;;
4186;SDS011;2107;52.306;10.484;2023-05-08T03:50:34;0.30;;;0.30;;
4186;SDS011;2107;52.306;10.484;2023-05-08T03:53:03;0.40;;;0.40;;
4186;SDS011;2107;52.306;10.484;2023-05-08T03:55:30;0.50;;;0.50;;
4186;SDS011;2107;52.306;10.484;2023-05-08T03:58:00;0.50;;;0.50;;
4186;SDS011;2107;52.306;10.484;2023-05-08T04:00:36;0.60;;;0.60;;
4186;SDS011;2107;52.306;10.484;2023-05-08T04:03:18;0.70;;;0.70;;
4186;SDS011;2107;52.306;10.484;2023-05-08T04:05:50;0.80;;;0.80;;
4186;SDS011;2107;52.306;10.484;2023-05-08T04:08:26;0.70;;;0.70;;
4186;SDS011;2107;52.306;10.484;2023-05-08T04:10:58;0.67;;;0.67;;
4186;SDS011;2107;52.306;10.484;2023-05-08T04:13:33;1.13;;;1.13;;
4186;SDS011;2107;52.306;10.484;2023-05-08T04:16:06;1.20;;;1.20;;
4186;SDS011;2107;52.306;10.484;2023-05-08T04:18:39;0.90;;;0.90;;
4186;SDS011;2107;52.306;10.484;2023-05-08T04:21:11;0.80;;;0.80;;
4186;SDS011;2107;52.306;10.484;2023-05-08T04:23:44;0.80;;;0.80;;
4186;SDS011;2107;52.306;10.484;2023-05-08T04:26:13;0.80;;;0.80;;
4186;SDS011;2107;52.306;10.484;2023-05-08T04:28:44;0.90;;;0.90;;
4186;SDS011;2107;52.306;10.484;2023-05-08T04:31:12;0.70;;;0.70;;
4186;SDS011;2107;52.306;10.484;2023-05-08T04:33:41;0.63;;;0.63;;
4186;SDS011;2107;52.306;10.484;2023-05-08T04:36:10;0.70;;;0.70;;
4186;SDS011;2107;52.306;10.484;2023-05-08T04:38:37;0.90;;;0.90;;
4186;SDS011;2107;52.306;10.484;2023-05-08T04:41:04;0.80;;;0.80;;
4186;SDS011;2107;52.306;10.484;2023-05-08T04:43:31;1.00;;;1.00;;
4186;SDS011;2107;52.306;10.484;2023-05-08T04:45:59;0.73;;;0.73;;
4186;SDS011;2107;52.306;10.484;2023-05-08T04:48:26;0.70;;;0.70;;
4186;SDS011;2107;52.306;10.484;2023-05-08T04:50:55;0.60;;;0.60;;
4186;SDS011;2107;52.306;10.484;2023-05-08T04:53:22;0.80;;;0.80;;
4186;SDS011;2107;52.306;10.484;2023-05-08T04:55:49;1.00;;;1.00;;
4186;SDS011;2107;52.306;10.484;2023-05-08T04:58:16;0.80;;;0.80;;
4186;SDS011;2107;52.306;10.484;2023-05-08T05:00:42;0.90;;;0.90;;
4186;SDS011;2107;52.306;10.484;2023-05-08T05:03:11;1.00;;;1.00;;
4186;SDS011;2107;52.306;10.484;2023-05-08T05:05:37;0.60;;;0.60;;
4186;SDS011;2107;52.306;10.484;2023-05-08T05:08:05;0.90;;;0.90;;
4186;SDS011;2107;52.306;10.484;2023-05-08T05:10:32;1.00;;;1.00;;
4186;SDS011;2107;52.306;10.484;2023-05-08T05:12:59;0.60;;;0.60;;
4186;SDS011;2107;52.306;10.484;2023-05-08T05:15:25;0.90;;;0.90;;
4186;SDS011;2107;52.306;10.484;2023-05-08T05:17:52;0.90;;;0.90;;
4186;SDS011;2107;52.306;10.484;2023-05-08T05:20:20;1.00;;;1.00;;
4186;SDS011;2107;52.306;10.484;2023-05-08T05:22:47;0.90;;;0.90;;
4186;SDS011;2107;52.306;10.484;2023-05-08T05:25:14;0.90;;;0.90;;
4186;SDS011;2107;52.306;10.484;2023-05-08T05:27:41;1.00;;;1.00;;
4186;SDS011;2107;52.306;10.484;2023-05-08T05:30:08;0.90;;;0.90;;
4186;SDS011;2107;52.306;10.484;2023-05-08T05:32:36;0.90;;;0.90;;
4186;SDS011;2107;52.306;10.484;2023-05-08T05:35:03;0.80;;;0.80;;
4186;SDS011;2107;52.306;10.484;2023-05-08T05:37:32;0.93;;;0.93;;
4186;SDS011;2107;52.306;10.484;2023-05-08T05:39:58;0.80;;;0.80;;
4186;SDS011;2107;52.306;10.484;2023-05-08T05:42:25;0.87;;;0.87;;
4186;SDS011;2107;52.306;10.484;2023-05-08T05:44:52;0.80;;;0.80;;
4186;SDS011;2107;52.306;10.484;2023-05-08T05:47:20;0.70;;;0.70;;
4186;SDS011;2107;52.306;10.484;2023-05-08T05:49:47;0.80;;;0.80;;
4186;SDS011;2107;52.306;10.484;2023-05-08T05:52:14;0.80;;;0.80;;
4186;SDS011;2107;52.306;10.484;2023-05-08T05:54:42;0.80;;;0.80;;
4186;SDS011;2107;52.306;10.484;2023-05-08T05:57:10;0.90;;;0.90;;
4186;SDS011;2107;52.306;10.484;2023-05-08T05:59:38;0.90;;;0.90;;
4186;SDS011;2107;52.306;10.484;2023-05-08T06:02:05;0.80;;;0.80;;
4186;SDS011;2107;52.306;10.484;2023-05-08T06:04:34;0.80;;;0.80;;
4186;SDS011;2107;52.306;10.484;2023-05-08T06:07:01;1.10;;;1.10;;
4186;SDS011;2107;52.306;10.484;2023-05-08T06:09:28;1.30;;;1.30;;
4186;SDS011;2107;52.306;10.484;2023-05-08T06:11:56;0.80;;;0.80;;
4186;SDS011;2107;52.306;10.484;2023-05-08T06:14:23;0.70;;;0.70;;
4186;SDS011;2107;52.306;10.484;2023-05-08T06:16:50;1.03;;;1.03;;
4186;SDS011;2107;52.306;10.484;2023-05-08T06:19:17;0.80;;;0.80;;
4186;SDS011;2107;52.306;10.484;2023-05-08T06:21:43;0.80;;;0.80;;
4186;SDS011;2107;52.306;10.484;2023-05-08T06:24:10;1.10;;;1.10;;
4186;SDS011;2107;52.306;10.484;2023-05-08T06:26:37;0.80;;;0.80;;
4186;SDS011;2107;52.306;10.484;2023-05-08T06:29:05;0.70;;;0.70;;
4186;SDS011;2107;52.306;10.484;2023-05-08T06:31:32;0.93;;;0.93;;
4186;SDS011;2107;52.306;10.484;2023-05-08T06:33:59;1.00;;;1.00;;
4186;SDS011;2107;52.306;10.484;2023-05-08T06:36:26;0.90;;;0.90;;
4186;SDS011;2107;52.306;10.484;2023-05-08T06:38:53;0.90;;;0.90;;
4186;SDS011;2107;52.306;10.484;2023-05-08T06:41:19;0.80;;;0.80;;
4186;SDS011;2107;52.306;10.484;2023-05-08T06:43:46;1.00;;;1.00;;
4186;SDS011;2107;52.306;10.484;2023-05-08T06:46:15;1.10;;;1.10;;
4186;SDS011;2107;52.306;10.484;2023-05-08T06:48:42;0.70;;;0.70;;
4186;SDS011;2107;52.306;10.484;2023-05-08T06:51:08;0.90;;;0.90;;
4186;SDS011;2107;52.306;10.484;2023-05-08T06:53:35;0.60;;;0.60;;
4186;SDS011;2107;52.306;10.484;2023-05-08T06:56:02;0.60;;;0.60;;
4186;SDS011;2107;52.306;10.484;2023-05-08T06:58:29;0.60;;;0.60;;
4186;SDS011;2107;52.306;10.484;2023-05-08T07:00:57;0.70;;;0.70;;
4186;SDS011;2107;52.306;10.484;2023-05-08T07:03:26;0.60;;;0.60;;
4186;SDS011;2107;52.306;10.484;2023-05-08T07:05:53;0.80;;;0.80;;
4186;SDS011;2107;52.306;10.484;2023-05-08T07:08:20;0.70;;;0.70;;
4186;SDS011;2107;52.306;10.484;2023-05-08T07:10:46;0.80;;;0.80;;
4186;SDS011;2107;52.306;10.484;2023-05-08T07:13:13;0.80;;;0.80;;
4186;SDS011;2107;52.306;10.484;2023-05-08T07:15:45;0.80;;;0.80;;
4186;SDS011;2107;52.306;10.484;2023-05-08T07:18:12;0.70;;;0.70;;
4186;SDS011;2107;52.306;10.484;2023-05-08T07:20:40;0.70;;;0.70;;
4186;SDS011;2107;52.306;10.484;2023-05-08T07:23:07;0.80;;;0.80;;
4186;SDS011;2107;52.306;10.484;2023-05-08T07:25:34;0.90;;;0.90;;
4186;SDS011;2107;52.306;10.484;2023-05-08T07:28:01;0.77;;;0.77;;
4186;SDS011;2107;52.306;10.484;2023-05-08T07:30:28;0.90;;;0.90;;
4186;SDS011;2107;52.306;10.484;2023-05-08T07:32:55;0.80;;;0.80;;
4186;SDS011;2107;52.306;10.484;2023-05-08T07:35:21;0.70;;;0.70;;
4186;SDS011;2107;52.306;10.484;2023-05-08T07:37:50;0.77;;;0.77;;
4186;SDS011;2107;52.306;10.484;2023-05-08T07:40:17;0.80;;;0.80;;
4186;SDS011;2107;52.306;10.484;2023-05-08T07:42:44;0.80;;;0.80;;
4186;SDS011;2107;52.306;10.484;2023-05-08T07:45:11;0.70;;;0.70;;
4186;SDS011;2107;52.306;10.484;2023-05-08T07:47:47;0.60;;;0.60;;
4186;SDS011;2107;52.306;10.484;2023-05-08T07:50:14;0.60;;;0.60;;
4186;SDS011;2107;52.306;10.484;2023-05-08T07:52:41;0.50;;;0.50;;
4186;SDS011;2107;52.306;10.484;2023-05-08T07:55:09;0.70;;;0.70;;
4186;SDS011;2107;52.306;10.484;2023-05-08T07:57:36;0.33;;;0.33;;
4186;SDS011;2107;52.306;10.484;2023-05-08T08:00:04;0.40;;;0.40;;
4186;SDS011;2107;52.306;10.484;2023-05-08T08:02:32;0.50;;;0.50;;
4186;SDS011;2107;52.306;10.484;2023-05-08T08:04:59;0.50;;;0.50;;
4186;SDS011;2107;52.306;10.484;2023-05-08T08:07:26;0.50;;;0.50;;
4186;SDS011;2107;52.306;10.484;2023-05-08T08:09:53;0.60;;;0.60;;
4186;SDS011;2107;52.306;10.484;2023-05-08T08:12:21;0.50;;;0.50;;
4186;SDS011;2107;52.306;10.484;2023-05-08T08:14:48;0.50;;;0.50;;
4186;SDS011;2107;52.306;10.484;2023-05-08T08:17:15;0.40;;;0.40;;
4186;SDS011;2107;52.306;10.484;2023-05-08T08:19:42;0.60;;;0.60;;
4186;SDS011;2107;52.306;10.484;2023-05-08T08:22:09;0.70;;;0.70;;
4186;SDS011;2107;52.306;10.484;2023-05-08T08:24:36;0.50;;;0.50;;
4186;SDS011;2107;52.306;10.484;2023-05-08T08:27:03;0.50;;;0.50;;
4186;SDS011;2107;52.306;10.484;2023-05-08T08:29:31;0.50;;;0.50;;
4186;SDS011;2107;52.306;10.484;2023-05-08T08:31:58;0.70;;;0.70;;
4186;SDS011;2107;52.306;10.484;2023-05-08T08:34:27;0.40;;;0.40;;
4186;SDS011;2107;52.306;10.484;2023-05-08T08:36:54;0.50;;;0.50;;
4186;SDS011;2107;52.306;10.484;2023-05-08T08:39:21;0.60;;;0.60;;
4186;SDS011;2107;52.306;10.484;2023-05-08T08:41:47;0.70;;;0.70;;
4186;SDS011;2107;52.306;10.484;2023-05-08T08:44:14;0.60;;;0.60;;
4186;SDS011;2107;52.306;10.484;2023-05-08T08:46:50;0.60;;;0.60;;
4186;SDS011;2107;52.306;10.484;2023-05-08T08:49:17;0.70;;;0.70;;
4186;SDS011;2107;52.306;10.484;2023-05-08T08:51:48;0.90;;;0.90;;
4186;SDS011;2107;52.306;10.484;2023-05-08T08:54:19;0.80;;;0.80;;
4186;SDS011;2107;52.306;10.484;2023-05-08T08:56:48;0.60;;;0.60;;
4186;SDS011;2107;52.306;10.484;2023-05-08T08:59:16;0.50;;;0.50;;
4186;SDS011;2107;52.306;10.484;2023-05-08T09:01:46;0.90;;;0.90;;
4186;SDS011;2107;52.306;10.484;2023-05-08T09:04:15;0.70;;;0.70;;
4186;SDS011;2107;52.306;10.484;2023-05-08T09:06:43;0.70;;;0.70;;
4186;SDS011;2107;52.306;10.484;2023-05-08T09:09:10;0.80;;;0.80;;
4186;SDS011;2107;52.306;10.484;2023-05-08T09:11:38;0.80;;;0.80;;
4186;SDS011;2107;52.306;10.484;2023-05-08T09:14:06;0.80;;;0.80;;
4186;SDS011;2107;52.306;10.484;2023-05-08T09:16:33;1.00;;;1.00;;
4186;SDS011;2107;52.306;10.484;2023-05-08T09:19:02;0.90;;;0.90;;
4186;SDS011;2107;52.306;10.484;2023-05-08T09:21:29;1.00;;;1.00;;
4186;SDS011;2107;52.306;10.484;2023-05-08T09:23:57;0.80;;;0.80;;
4186;SDS011;2107;52.306;10.484;2023-05-08T09:26:25;0.80;;;0.80;;
4186;SDS011;2107;52.306;10.484;2023-05-08T09:29:03;0.80;;;0.80;;
4186;SDS011;2107;52.306;10.484;2023-05-08T09:31:34;0.90;;;0.90;;
4186;SDS011;2107;52.306;10.484;2023-05-08T09:34:02;0.90;;;0.90;;
4186;SDS011;2107;52.306;10.484;2023-05-08T09:36:29;0.80;;;0.80;;
4186;SDS011;2107;52.306;10.484;2023-05-08T09:38:58;0.87;;;0.87;;
4186;SDS011;2107;52.306;10.484;2023-05-08T09:41:25;0.50;;;0.50;;
4186;SDS011;2107;52.306;10.484;2023-05-08T09:43:59;0.70;;;0.70;;
4186;SDS011;2107;52.306;10.484;2023-05-08T09:46:26;0.90;;;0.90;;
4186;SDS011;2107;52.306;10.484;2023-05-08T09:48:54;0.90;;;0.90;;
4186;SDS011;2107;52.306;10.484;2023-05-08T09:51:24;0.70;;;0.70;;
4186;SDS011;2107;52.306;10.484;2023-05-08T09:53:52;0.90;;;0.90;;
4186;SDS011;2107;52.306;10.484;2023-05-08T09:59:21;0.80;;;0.80;;
4186;SDS011;2107;52.306;10.484;2023-05-08T10:01:50;1.00;;;1.00;;
4186;SDS011;2107;52.306;10.484;2023-05-08T10:04:17;0.80;;;0.80;;
4186;SDS011;2107;52.306;10.484;2023-05-08T10:06:57;0.90;;;0.90;;
4186;SDS011;2107;52.306;10.484;2023-05-08T10:09:24;0.80;;;0.80;;
4186;SDS011;2107;52.306;10.484;2023-05-08T10:11:51;0.90;;;0.90;;
4186;SDS011;2107;52.306;10.484;2023-05-08T10:14:19;0.90;;;0.90;;
4186;SDS011;2107;52.306;10.484;2023-05-08T10:16:48;0.73;;;0.73;;
4186;SDS011;2107;52.306;10.484;2023-05-08T10:19:17;0.90;;;0.90;;
4186;SDS011;2107;52.306;10.484;2023-05-08T10:21:45;0.80;;;0.80;;
4186;SDS011;2107;52.306;10.484;2023-05-08T10:24:15;0.70;;;0.70;;
4186;SDS011;2107;52.306;10.484;2023-05-08T10:26:43;0.87;;;0.87;;
4186;SDS011;2107;52.306;10.484;2023-05-08T10:29:20;0.80;;;0.80;;
4186;SDS011;2107;52.306;10.484;2023-05-08T10:31:51;0.70;;;0.70;;
4186;SDS011;2107;52.306;10.484;2023-05-08T10:34:21;0.90;;;0.90;;
4186;SDS011;2107;52.306;10.484;2023-05-08T10:36:49;0.73;;;0.73;;
4186;SDS011;2107;52.306;10.484;2023-05-08T10:39:18;0.80;;;0.80;;
4186;SDS011;2107;52.306;10.484;2023-05-08T10:41:47;0.70;;;0.70;;
4186;SDS011;2107;52.306;10.484;2023-05-08T10:44:14;0.90;;;0.90;;
4186;SDS011;2107;52.306;10.484;2023-05-08T10:46:44;0.90;;;0.90;;
4186;SDS011;2107;52.306;10.484;2023-05-08T10:49:24;1.00;;;1.00;;
4186;SDS011;2107;52.306;10.484;2023-05-08T10:52:00;0.90;;;0.90;;
4186;SDS011;2107;52.306;10.484;2023-05-08T10:54:41;0.90;;;0.90;;
4186;SDS011;2107;52.306;10.484;2023-05-08T10:57:22;0.90;;;0.90;;
4186;SDS011;2107;52.306;10.484;2023-05-08T10:59:49;0.90;;;0.90;;
4186;SDS011;2107;52.306;10.484;2023-05-08T11:02:16;0.80;;;0.80;;
4186;SDS011;2107;52.306;10.484;2023-05-08T11:04:52;0.60;;;0.60;;
4186;SDS011;2107;52.306;10.484;2023-05-08T11:07:19;0.50;;;0.50;;
4186;SDS011;2107;52.306;10.484;2023-05-08T11:09:56;0.60;;;0.60;;
4186;SDS011;2107;52.306;10.484;2023-05-08T11:12:32;0.80;;;0.80;;
4186;SDS011;2107;52.306;10.484;2023-05-08T11:15:01;0.80;;;0.80;;
4186;SDS011;2107;52.306;10.484;2023-05-08T11:17:30;0.90;;;0.90;;
4186;SDS011;2107;52.306;10.484;2023-05-08T11:19:58;0.70;;;0.70;;
4186;SDS011;2107;52.306;10.484;2023-05-08T11:22:28;0.80;;;0.80;;
4186;SDS011;2107;52.306;10.484;2023-05-08T11:24:58;0.77;;;0.77;;
4186;SDS011;2107;52.306;10.484;2023-05-08T11:27:30;0.87;;;0.87;;
4186;SDS011;2107;52.306;10.484;2023-05-08T11:30:17;0.80;;;0.80;;
4186;SDS011;2107;52.306;10.484;2023-05-08T11:32:54;1.10;;;1.10;;
4186;SDS011;2107;52.306;10.484;2023-05-08T11:38:14;0.73;;;0.73;;
4186;SDS011;2107;52.306;10.484;2023-05-08T11:40:54;0.80;;;0.80;;
4186;SDS011;2107;52.306;10.484;2023-05-08T11:46:48;1.07;;;1.07;;
4186;SDS011;2107;52.306;10.484;2023-05-08T11:49:16;1.10;;;1.10;;
4186;SDS011;2107;52.306;10.484;2023-05-08T11:51:45;1.10;;;1.10;;
4186;SDS011;2107;52.306;10.484;2023-05-08T11:54:14;1.00;;;1.00;;
4186;SDS011;2107;52.306;10.484;2023-05-08T11:56:45;0.90;;;0.90;;
4186;SDS011;2107;52.306;10.484;2023-05-08T11:59:13;1.10;;;1.10;;
4186;SDS011;2107;52.306;10.484;2023-05-08T12:01:41;1.00;;;1.00;;
4186;SDS011;2107;52.306;10.484;2023-05-08T12:04:09;0.90;;;0.90;;
4186;SDS011;2107;52.306;10.484;2023-05-08T12:06:37;0.80;;;0.80;;
4186;SDS011;2107;52.306;10.484;2023-05-08T12:09:09;0.90;;;0.90;;
4186;SDS011;2107;52.306;10.484;2023-05-08T12:11:36;0.90;;;0.90;;
4186;SDS011;2107;52.306;10.484;2023-05-08T12:14:06;1.00;;;1.00;;
4186;SDS011;2107;52.306;10.484;2023-05-08T12:16:34;0.90;;;0.90;;
4186;SDS011;2107;52.306;10.484;2023-05-08T12:19:02;0.80;;;0.80;;
4186;SDS011;2107;52.306;10.484;2023-05-08T12:21:30;0.83;;;0.83;;
4186;SDS011;2107;52.306;10.484;2023-05-08T12:23:57;0.70;;;0.70;;
4186;SDS011;2107;52.306;10.484;2023-05-08T12:26:25;1.00;;;1.00;;
4186;SDS011;2107;52.306;10.484;2023-05-08T12:28:55;1.00;;;1.00;;
4186;SDS011;2107;52.306;10.484;2023-05-08T12:31:23;0.90;;;0.90;;
4186;SDS011;2107;52.306;10.484;2023-05-08T12:33:50;0.90;;;0.90;;
4186;SDS011;2107;52.306;10.484;2023-05-08T12:36:18;0.80;;;0.80;;
4186;SDS011;2107;52.306;10.484;2023-05-08T12:38:45;0.60;;;0.60;;
4186;SDS011;2107;52.306;10.484;2023-05-08T12:41:11;0.90;;;0.90;;
4186;SDS011;2107;52.306;10.484;2023-05-08T12:43:38;0.83;;;0.83;;
4186;SDS011;2107;52.306;10.484;2023-05-08T12:46:05;0.70;;;0.70;;
4186;SDS011;2107;52.306;10.484;2023-05-08T12:48:38;0.90;;;0.90;;
4186;SDS011;2107;52.306;10.484;2023-05-08T12:51:05;0.80;;;0.80;;
4186;SDS011;2107;52.306;10.484;2023-05-08T12:53:32;1.00;;;1.00;;
4186;SDS011;2107;52.306;10.484;2023-05-08T12:56:00;1.10;;;1.10;;
4186;SDS011;2107;52.306;10.484;2023-05-08T12:58:29;1.00;;;1.00;;
4186;SDS011;2107;52.306;10.484;2023-05-08T13:01:05;0.80;;;0.80;;
4186;SDS011;2107;52.306;10.484;2023-05-08T13:03:34;1.10;;;1.10;;
4186;SDS011;2107;52.306;10.484;2023-05-08T13:06:03;0.90;;;0.90;;
4186;SDS011;2107;52.306;10.484;2023-05-08T13:08:31;0.80;;;0.80;;
4186;SDS011;2107;52.306;10.484;2023-05-08T13:10:59;0.60;;;0.60;;
4186;SDS011;2107;52.306;10.484;2023-05-08T13:13:28;0.70;;;0.70;;
4186;SDS011;2107;52.306;10.484;2023-05-08T13:15:56;0.90;;;0.90;;
4186;SDS011;2107;52.306;10.484;2023-05-08T13:18:23;1.00;;;1.00;;
4186;SDS011;2107;52.306;10.484;2023-05-08T13:20:52;0.93;;;0.93;;
4186;SDS011;2107;52.306;10.484;2023-05-08T13:23:20;0.80;;;0.80;;
4186;SDS011;2107;52.306;10.484;2023-05-08T13:25:48;1.00;;;1.00;;
4186;SDS011;2107;52.306;10.484;2023-05-08T13:28:15;0.90;;;0.90;;
4186;SDS011;2107;52.306;10.484;2023-05-08T13:30:42;0.90;;;0.90;;
4186;SDS011;2107;52.306;10.484;2023-05-08T13:33:09;1.00;;;1.00;;
4186;SDS011;2107;52.306;10.484;2023-05-08T13:35:36;1.00;;;1.00;;
4186;SDS011;2107;52.306;10.484;2023-05-08T13:38:03;1.07;;;1.07;;
4186;SDS011;2107;52.306;10.484;2023-05-08T13:40:31;1.00;;;1.00;;
4186;SDS011;2107;52.306;10.484;2023-05-08T13:42:58;0.80;;;0.80;;
4186;SDS011;2107;52.306;10.484;2023-05-08T13:45:25;0.70;;;0.70;;
4186;SDS011;2107;52.306;10.484;2023-05-08T13:47:52;1.00;;;1.00;;
4186;SDS011;2107;52.306;10.484;2023-05-08T13:50:19;0.80;;;0.80;;
4186;SDS011;2107;52.306;10.484;2023-05-08T13:52:47;0.80;;;0.80;;
4186;SDS011;2107;52.306;10.484;2023-05-08T13:55:14;1.20;;;1.20;;
4186;SDS011;2107;52.306;10.484;2023-05-08T13:57:43;1.30;;;1.30;;
4186;SDS011;2107;52.306;10.484;2023-05-08T14:00:10;0.90;;;0.90;;
4186;SDS011;2107;52.306;10.484;2023-05-08T14:02:37;1.10;;;1.10;;
4186;SDS011;2107;52.306;10.484;2023-05-08T14:05:04;1.30;;;1.30;;
4186;SDS011;2107;52.306;10.484;2023-05-08T14:07:33;1.30;;;1.30;;
4186;SDS011;2107;52.306;10.484;2023-05-08T14:10:00;1.20;;;1.20;;
4186;SDS011;2107;52.306;10.484;2023-05-08T14:12:26;0.90;;;0.90;;
4186;SDS011;2107;52.306;10.484;2023-05-08T14:14:55;1.10;;;1.10;;
4186;SDS011;2107;52.306;10.484;2023-05-08T14:17:22;1.20;;;1.20;;
4186;SDS011;2107;52.306;10.484;2023-05-08T14:19:49;1.00;;;1.00;;
4186;SDS011;2107;52.306;10.484;2023-05-08T14:22:16;1.30;;;1.30;;
4186;SDS011;2107;52.306;10.484;2023-05-08T14:24:43;1.00;;;1.00;;
4186;SDS011;2107;52.306;10.484;2023-05-08T14:27:10;1.20;;;1.20;;
4186;SDS011;2107;52.306;10.484;2023-05-08T14:29:37;1.27;;;1.27;;
4186;SDS011;2107;52.306;10.484;2023-05-08T14:32:05;1.40;;;1.40;;
4186;SDS011;2107;52.306;10.484;2023-05-08T14:34:33;1.23;;;1.23;;
4186;SDS011;2107;52.306;10.484;2023-05-08T14:37:00;1.00;;;1.00;;
4186;SDS011;2107;52.306;10.484;2023-05-08T14:39:27;1.20;;;1.20;;
4186;SDS011;2107;52.306;10.484;2023-05-08T14:41:53;1.60;;;1.60;;
4186;SDS011;2107;52.306;10.484;2023-05-08T14:44:20;1.50;;;1.50;;
4186;SDS011;2107;52.306;10.484;2023-05-08T14:46:47;1.50;;;1.50;;
4186;SDS011;2107;52.306;10.484;2023-05-08T14:49:15;1.30;;;1.30;;
4186;SDS011;2107;52.306;10.484;2023-05-08T14:51:42;1.60;;;1.60;;
4186;SDS011;2107;52.306;10.484;2023-05-08T14:54:09;1.70;;;1.70;;
4186;SDS011;2107;52.306;10.484;2023-05-08T14:56:36;1.80;;;1.80;;
4186;SDS011;2107;52.306;10.484;2023-05-08T14:59:02;1.60;;;1.60;;
4186;SDS011;2107;52.306;10.484;2023-05-08T15:01:29;1.30;;;1.30;;
4186;SDS011;2107;52.306;10.484;2023-05-08T15:03:56;1.50;;;1.50;;
4186;SDS011;2107;52.306;10.484;2023-05-08T15:06:24;1.10;;;1.10;;
4186;SDS011;2107;52.306;10.484;2023-05-08T15:08:52;1.30;;;1.30;;
4186;SDS011;2107;52.306;10.484;2023-05-08T15:11:19;1.50;;;1.50;;
4186;SDS011;2107;52.306;10.484;2023-05-08T15:13:48;1.53;;;1.53;;
4186;SDS011;2107;52.306;10.484;2023-05-08T15:16:15;1.50;;;1.50;;
4186;SDS011;2107;52.306;10.484;2023-05-08T15:18:42;1.60;;;1.60;;
4186;SDS011;2107;52.306;10.484;2023-05-08T15:21:11;1.30;;;1.30;;
4186;SDS011;2107;52.306;10.484;2023-05-08T15:23:40;1.07;;;1.07;;